Time,TemperatureF,DewpointF,PressureIn,WindDirection,WindDirectionDegrees,WindSpeedMPH,WindSpeedGustMPH,Humidity,HourlyPrecipIn,Conditions,Clouds,dailyrainin,SoftwareType,DateUTC
2017-06-25 00:00:00,69.2,58.2,29.84,WSW,252,0.0,0.0,68,0.00,,,0.12,Wunderground v.1.15,2017-06-25 04:00:00,
2017-06-25 00:10:00,69.0,58.4,29.84,WSW,253,0.0,0.0,69,0.00,,,0.00,Wunderground v.1.15,2017-06-25 04:10:00,
2017-06-25 00:20:00,68.7,58.1,29.84,WSW,253,1.0,1.0,69,0.00,,,0.00,Wunderground v.1.15,2017-06-25 04:20:00,
2017-06-25 00:30:00,68.6,58.0,29.84,WSW,253,0.0,0.0,69,0.00,,,0.00,Wunderground v.1.15,2017-06-25 04:30:00,
2017-06-25 00:40:00,68.4,58.2,29.84,WSW,252,0.0,3.0,70,0.00,,,0.00,Wunderground v.1.15,2017-06-25 04:40:00,
2017-06-25 00:50:00,68.2,59.2,29.84,WSW,253,0.0,3.0,73,0.00,,,0.00,Wunderground v.1.15,2017-06-25 04:50:00,
2017-06-25 01:00:00,67.9,59.3,29.84,WSW,253,0.0,0.0,74,0.00,,,0.00,Wunderground v.1.15,2017-06-25 05:00:00,
2017-06-25 01:10:00,67.4,59.2,29.85,WSW,252,0.0,1.0,75,0.00,,,0.00,Wunderground v.1.15,2017-06-25 05:10:00,
2017-06-25 01:20:00,66.8,58.6,29.85,WSW,252,0.0,0.0,75,0.00,,,0.00,Wunderground v.1.15,2017-06-25 05:20:00,
2017-06-25 01:25:00,66.7,59.3,29.85,WSW,253,0.0,0.0,77,0.00,,,0.00,Wunderground v.1.15,2017-06-25 05:25:00,
2017-06-25 01:35:00,66.7,59.3,29.85,WSW,253,0.0,3.0,77,0.00,,,0.00,Wunderground v.1.15,2017-06-25 05:35:00,
2017-06-25 01:45:00,66.7,59.6,29.85,WSW,252,0.0,3.0,78,0.00,,,0.00,Wunderground v.1.15,2017-06-25 05:45:00,
2017-06-25 01:55:00,66.6,58.8,29.86,WSW,252,0.0,3.0,76,0.00,,,0.00,Wunderground v.1.15,2017-06-25 05:55:00,
2017-06-25 02:00:00,66.7,59.3,29.85,WSW,252,0.0,0.0,77,0.00,,,0.00,Wunderground v.1.15,2017-06-25 06:00:00,
2017-06-25 02:10:00,66.8,60.1,29.86,WSW,252,0.0,0.0,79,0.00,,,0.00,Wunderground v.1.15,2017-06-25 06:10:00,
2017-06-25 02:20:00,67.0,58.8,29.86,WSW,252,0.0,0.0,75,0.00,,,0.00,Wunderground v.1.15,2017-06-25 06:20:00,
2017-06-25 02:30:00,67.4,59.2,29.86,WSW,252,0.0,1.0,75,0.00,,,0.00,Wunderground v.1.15,2017-06-25 06:30:00,
2017-06-25 02:35:00,67.6,58.2,29.85,WSW,253,0.0,1.0,72,0.00,,,0.00,Wunderground v.1.15,2017-06-25 06:35:00,
2017-06-25 02:45:00,68.0,59.0,29.85,WSW,257,1.0,3.0,73,0.00,,,0.00,Wunderground v.1.15,2017-06-25 06:45:00,
2017-06-25 02:55:00,68.6,57.2,29.85,WSW,255,1.0,2.0,67,0.00,,,0.00,Wunderground v.1.15,2017-06-25 06:55:00,
2017-06-25 03:00:00,68.9,57.1,29.85,WNW,293,1.0,1.0,66,0.00,,,0.00,Wunderground v.1.15,2017-06-25 07:00:00,
2017-06-25 03:10:00,69.4,56.3,29.85,WNW,294,1.0,2.0,63,0.00,,,0.00,Wunderground v.1.15,2017-06-25 07:10:00,
2017-06-25 03:15:00,69.6,56.4,29.85,WSW,252,1.0,2.0,63,0.00,,,0.00,Wunderground v.1.15,2017-06-25 07:15:00,
2017-06-25 03:25:00,70.0,55.9,29.85,WSW,254,2.0,2.0,61,0.00,,,0.00,Wunderground v.1.15,2017-06-25 07:25:00,
2017-06-25 03:35:00,70.1,56.0,29.85,West,260,1.0,3.0,61,0.00,,,0.00,Wunderground v.1.15,2017-06-25 07:35:00,
2017-06-25 03:45:00,70.1,55.6,29.86,SW,231,2.0,3.0,60,0.00,,,0.00,Wunderground v.1.15,2017-06-25 07:45:00,
2017-06-25 03:55:00,70.1,56.0,29.86,West,261,1.0,3.0,61,0.00,,,0.00,Wunderground v.1.15,2017-06-25 07:55:00,
2017-06-25 04:00:00,70.1,55.6,29.86,WNW,300,2.0,2.0,60,0.00,,,0.00,Wunderground v.1.15,2017-06-25 08:00:00,
2017-06-25 04:10:00,69.9,55.4,29.86,West,263,1.0,1.0,60,0.00,,,0.00,Wunderground v.1.15,2017-06-25 08:10:00,
2017-06-25 04:20:00,69.7,55.2,29.86,WSW,247,1.0,1.0,60,0.00,,,0.00,Wunderground v.1.15,2017-06-25 08:20:00,
2017-06-25 04:30:00,69.2,55.2,29.87,WSW,245,1.0,1.0,61,0.00,,,0.00,Wunderground v.1.15,2017-06-25 08:30:00,
2017-06-25 04:40:00,68.7,55.2,29.88,West,260,1.0,8.0,62,0.00,,,0.00,Wunderground v.1.15,2017-06-25 08:40:00,
2017-06-25 04:50:00,68.2,55.1,29.88,West,260,0.0,8.0,63,0.00,,,0.00,Wunderground v.1.15,2017-06-25 08:50:00,
2017-06-25 05:00:00,67.5,56.2,29.88,West,260,0.0,0.0,67,0.00,,,0.00,Wunderground v.1.15,2017-06-25 09:00:00,
2017-06-25 05:05:00,67.1,56.6,29.88,West,260,0.0,0.0,69,0.00,,,0.00,Wunderground v.1.15,2017-06-25 09:05:00,
2017-06-25 05:15:00,65.9,56.6,29.89,West,260,0.0,0.0,72,0.00,,,0.00,Wunderground v.1.15,2017-06-25 09:15:00,
2017-06-25 05:25:00,65.2,56.3,29.89,West,260,0.0,0.0,73,0.00,,,0.00,Wunderground v.1.15,2017-06-25 09:25:00,
2017-06-25 05:35:00,64.5,56.4,29.89,West,260,0.0,6.0,75,0.00,,,0.00,Wunderground v.1.15,2017-06-25 09:35:00,
2017-06-25 05:40:00,64.0,56.3,29.89,West,260,0.0,6.0,76,0.00,,,0.00,Wunderground v.1.15,2017-06-25 09:40:00,
2017-06-25 05:50:00,63.5,55.8,29.89,West,260,0.0,6.0,76,0.00,,,0.00,Wunderground v.1.15,2017-06-25 09:50:00,
2017-06-25 06:00:00,63.3,56.3,29.90,West,261,0.0,0.0,78,0.00,,,0.00,Wunderground v.1.15,2017-06-25 10:00:00,
2017-06-25 06:10:00,63.3,56.3,29.90,West,261,0.0,0.0,78,0.00,,,0.00,Wunderground v.1.15,2017-06-25 10:10:00,